Главная страница
METAR-TAF:

METAR-TAF

Аэропорты :

Easton, Мэриленд, США

широта: 38-48N, долгота: 076-04W, высота над уровнем моря: 22 м

Текущие метеонаблюдения

Эта сводка был подготовлена 12 минут назад, в 23:45 UTC
Ветер 3 Узел от северный
Температура 24°C
Влажность 57%
Давление 1018 hPa
Видимость: 16.1 км
небольшая облачность на высоте 10000 фута

METAR: KESN 232345Z 35003KT 10SM FEW100 24/15 A3006

Время: 19:57 (23:57 UTC)


TAF: отсутствует

Метеонаблюдения и прогнозы для более 4000 аэропортов (сводки METAR и TAF).

Имеющиеся станции представлены на карте желтыми и красными точками.

Чтобы увидеть название станции, наведите на нее мышь.

Затем щелкните, чтобы увидеть метеонаблюдения и метеопрогнозы.

Управление картой: чтобы увеличить масштаб, щелкните зеленые кнопки с черным крестиком; чтобы уменьшить масштаб, щелкните зеленую кнопку с тире; для просмотра соседних карт щелкайте зеленые стрелки.


METAR-TAF: